Time;durP1;ratioP1;P1;durP2;ratioP2;P2;SDS_P1;SDS_P2;PMS_P1;PMS_P2;Temp;Humidity;BMP_temperature;BMP_pressure;BME280_temperature;BME280_humidity;BME280_pressure;Samples;Min_cycle;Max_cycle;Signal;HPM_P1;HPM_P2
2020/12/25 01:18:38;;;;;;;;;;;;;;;;;;;;;
2020/12/25 01:22:04;;;;;;;0.60;0.60;;;17.00;41.70;;;;;;6105212;23;20176;-81
2020/12/25 01:42:46;;;;;;;;;;;;;;;;;;;;;
2020/12/25 02:21:13;;;;;;;;;;;;;;;;;;;;;
2020/12/25 03:27:23;;;;;;;;;;;;;;;;;;;;;
2020/12/25 04:18:03;;;;;;;;;;;;;;;;;;;;;
2020/12/25 06:04:58;;;;;;;;;;;;;;;;;;;;;
2020/12/25 08:26:18;;;;;;;0.40;0.40;;;17.20;40.40;;;;;;6138142;23;20233;-81
2020/12/25 08:28:49;;;;;;;0.50;0.50;;;17.20;40.40;;;;;;6001412;23;20618;-81
2020/12/25 08:31:59;;;;;;;0.50;0.50;;;17.20;40.30;;;;;;6021552;23;20683;-82
2020/12/25 08:34:31;;;;;;;0.52;0.50;;;17.20;40.40;;;;;;5963307;24;20155;-82
2020/12/25 08:37:14;;;;;;;0.63;0.60;;;17.20;40.40;;;;;;5979841;23;20196;-81
2020/12/25 08:39:52;;;;;;;0.45;0.45;;;17.30;40.30;;;;;;6024134;23;20170;-81
2020/12/25 08:42:47;;;;;;;0.50;0.50;;;17.20;40.40;;;;;;6000313;23;20724;-81
2020/12/25 08:45:35;;;;;;;0.63;0.50;;;17.20;40.30;;;;;;6029512;23;20161;-81
2020/12/25 08:48:23;;;;;;;0.60;0.60;;;17.10;40.40;;;;;;6006321;23;20154;-81
2020/12/25 08:54:33;;;;;;;;;;;;;;;;;;;;;
2020/12/25 09:00:25;;;;;;;0.50;0.50;;;17.20;40.30;;;;;;6086945;23;20160;-81
2020/12/25 09:03:24;;;;;;;0.40;0.40;;;17.20;40.30;;;;;;6111978;23;20476;-81
2020/12/25 09:06:11;;;;;;;0.50;0.50;;;17.20;40.30;;;;;;6115078;23;20183;-82
2020/12/25 09:08:52;;;;;;;0.47;0.40;;;17.20;40.30;;;;;;6120624;23;20179;-81
2020/12/25 09:11:57;;;;;;;;;;;;;;;;;;;;;
2020/12/25 09:14:27;;;;;;;0.40;0.40;;;17.10;40.30;;;;;;6122470;23;20182;-81
2020/12/25 09:17:02;;;;;;;0.50;0.40;;;17.20;40.20;;;;;;6091901;23;20192;-81
2020/12/25 09:20:01;;;;;;;0.40;0.40;;;17.20;40.20;;;;;;6068069;23;20226;-81
2020/12/25 09:22:32;;;;;;;0.50;0.43;;;17.10;40.20;;;;;;6092743;23;20152;-81
2020/12/25 09:25:07;;;;;;;0.43;0.43;;;17.10;40.20;;;;;;6068809;23;20152;-81
2020/12/25 09:27:40;;;;;;;0.82;0.50;;;17.10;40.30;;;;;;6091731;23;20705;-81
2020/12/25 09:30:36;;;;;;;0.57;0.57;;;17.10;40.10;;;;;;6092724;23;20156;-81
2020/12/25 09:33:32;;;;;;;0.68;0.60;;;17.20;40.00;;;;;;6115642;23;20155;-81
2020/12/25 09:36:17;;;;;;;0.50;0.50;;;17.30;40.10;;;;;;6077340;23;20163;-82
2020/12/25 09:39:00;;;;;;;0.40;0.40;;;17.30;40.10;;;;;;6118350;23;20164;-81
2020/12/25 09:41:44;;;;;;;0.30;0.30;;;17.20;40.10;;;;;;6142087;23;20128;-81
2020/12/25 09:44:51;;;;;;;0.50;0.50;;;17.10;40.90;;;;;;6063091;23;20179;-81
2020/12/25 09:47:38;;;;;;;0.40;0.40;;;17.20;40.10;;;;;;6001140;23;20147;-81
2020/12/25 09:50:15;;;;;;;0.50;0.50;;;17.10;40.10;;;;;;6001843;23;20214;-81
2020/12/25 09:53:05;;;;;;;0.60;0.60;;;17.20;40.20;;;;;;6001162;23;20168;-81
2020/12/25 09:59:31;;;;;;;0.57;0.50;;;17.20;40.10;;;;;;6024137;23;20233;-81
2020/12/25 10:02:33;;;;;;;1.05;0.50;;;17.20;40.00;;;;;;6006326;23;20150;-81
2020/12/25 10:05:31;;;;;;;0.40;0.40;;;17.20;40.00;;;;;;5914552;24;20153;-82
2020/12/25 10:08:19;;;;;;;0.45;0.45;;;17.20;40.10;;;;;;5917316;24;20533;-81
2020/12/25 10:11:09;;;;;;;0.30;0.30;;;17.20;40.00;;;;;;5940876;24;20166;-81
2020/12/25 10:17:40;;;;;;;0.57;0.57;;;17.30;39.70;;;;;;5806472;24;20160;-81
2020/12/25 10:20:09;;;;;;;0.40;0.40;;;17.20;40.00;;;;;;5789474;24;20184;-82
2020/12/25 10:23:12;;;;;;;0.38;0.38;;;17.20;40.00;;;;;;5836978;24;20185;-82
2020/12/25 10:25:39;;;;;;;0.60;0.40;;;17.20;39.90;;;;;;5831465;24;20181;-81
2020/12/25 10:28:37;;;;;;;0.63;0.55;;;17.20;39.70;;;;;;5832195;24;20180;-81
2020/12/25 10:31:20;;;;;;;0.40;0.40;;;17.30;39.70;;;;;;5836309;24;20155;-81
2020/12/25 10:33:57;;;;;;;0.50;0.50;;;17.30;39.60;;;;;;5784172;24;20215;-81
2020/12/25 10:36:42;;;;;;;0.52;0.50;;;17.30;39.80;;;;;;5824019;24;20531;-81
2020/12/25 10:39:09;;;;;;;0.40;0.40;;;17.30;39.60;;;;;;5801282;24;20354;-81
2020/12/25 10:42:14;;;;;;;0.88;0.52;;;17.30;39.70;;;;;;5873225;24;20201;-81
2020/12/25 10:45:31;;;;;;;0.40;0.40;;;17.20;39.70;;;;;;5856324;24;20165;-80
2020/12/25 10:48:09;;;;;;;0.40;0.40;;;17.30;39.70;;;;;;5871172;24;20591;-81
2020/12/25 10:50:57;;;;;;;0.50;0.40;;;17.30;39.80;;;;;;5879469;24;20154;-81
2020/12/25 10:53:44;;;;;;;0.40;0.40;;;17.10;40.00;;;;;;5926823;24;20163;-81
2020/12/25 10:56:53;;;;;;;0.40;0.40;;;17.10;39.90;;;;;;5989361;24;20146;-81
2020/12/25 10:59:36;;;;;;;0.55;0.40;;;17.20;39.90;;;;;;5989642;24;20194;-81
2020/12/25 11:02:12;;;;;;;0.30;0.30;;;17.20;39.90;;;;;;5965847;24;20564;-81
2020/12/25 11:05:21;;;;;;;;;;;;;;;;;;;;;
2020/12/25 11:07:47;;;;;;;0.40;0.40;;;17.20;39.70;;;;;;5994804;23;20653;-80
2020/12/25 11:11:14;;;;;;;0.40;0.40;;;17.20;39.80;;;;;;5994340;23;20494;-81
2020/12/25 11:14:26;;;;;;;0.40;0.40;;;17.20;39.60;;;;;;5910671;24;20168;-81
2020/12/25 11:17:27;;;;;;;0.40;0.40;;;17.20;39.70;;;;;;5911448;24;20274;-81
2020/12/25 11:20:38;;;;;;;0.45;0.45;;;17.30;39.40;;;;;;5916066;24;20196;-80
2020/12/25 11:23:23;;;;;;;0.40;0.40;;;17.30;39.40;;;;;;5910228;24;20168;-80
2020/12/25 11:25:51;;;;;;;0.50;0.47;;;17.30;39.30;;;;;;5910372;24;20170;-80
2020/12/25 11:28:29;;;;;;;0.30;0.30;;;17.30;39.50;;;;;;5973428;23;20159;-82
2020/12/25 11:31:31;;;;;;;;;;;;;;;;;;;;;
2020/12/25 11:34:43;;;;;;;0.30;0.30;;;17.20;39.80;;;;;;5978981;23;20181;-81
2020/12/25 11:37:29;;;;;;;0.50;0.50;;;17.10;39.70;;;;;;5909837;24;20216;-80
2020/12/25 11:40:18;;;;;;;0.50;0.50;;;17.20;39.70;;;;;;5909571;24;20194;-80
2020/12/25 11:42:54;;;;;;;0.40;0.40;;;17.20;39.70;;;;;;5888338;24;20168;-81
2020/12/25 11:46:24;;;;;;;;;;;;;;;;;;;;;
2020/12/25 11:49:44;;;;;;;0.38;0.38;;;17.20;39.60;;;;;;5865972;24;20204;-81
2020/12/25 11:53:08;;;;;;;0.40;0.40;;;17.20;39.50;;;;;;5924937;24;20605;-81
2020/12/25 11:56:22;;;;;;;;;;;;;;;;;;;;;
2020/12/25 11:59:00;;;;;;;0.40;0.40;;;17.20;39.50;;;;;;5938352;24;20215;-81
2020/12/25 12:01:44;;;;;;;0.68;0.50;;;17.20;39.50;;;;;;5918518;24;20137;-81
2020/12/25 12:04:23;;;;;;;0.52;0.43;;;17.20;39.50;;;;;;5940598;24;20157;-81
2020/12/25 12:07:24;;;;;;;0.40;0.40;;;17.20;39.60;;;;;;5846310;24;20154;-81
2020/12/25 12:10:05;;;;;;;0.43;0.43;;;17.20;39.60;;;;;;5937379;24;20185;-79
2020/12/25 12:12:32;;;;;;;0.40;0.40;;;17.20;39.50;;;;;;6031948;23;20167;-81
2020/12/25 12:15:22;;;;;;;0.50;0.43;;;17.20;39.50;;;;;;6083998;23;20165;-81
2020/12/25 12:21:49;;;;;;;0.40;0.40;;;17.30;39.50;;;;;;6088626;23;20219;-81
2020/12/25 12:24:33;;;;;;;0.32;0.32;;;17.20;39.60;;;;;;6107069;23;20133;-80
2020/12/25 12:27:23;;;;;;;0.30;0.30;;;17.20;39.60;;;;;;6053125;23;20210;-81
2020/12/25 12:30:12;;;;;;;;;;;;;;;;;;;;;
2020/12/25 12:32:58;;;;;;;0.45;0.45;;;17.20;39.50;;;;;;6117251;23;20152;-81
2020/12/25 12:36:12;;;;;;;0.60;0.50;;;17.20;39.60;;;;;;6139669;23;20132;-81
2020/12/25 12:42:00;;;;;;;0.40;0.40;;;17.20;39.70;;;;;;6048360;23;20157;-81
2020/12/25 12:44:53;;;;;;;0.32;0.32;;;17.20;39.60;;;;;;6026202;23;20582;-82
2020/12/25 12:47:48;;;;;;;0.50;0.40;;;17.20;39.40;;;;;;6054611;23;20218;-81
2020/12/25 12:50:34;;;;;;;0.40;0.40;;;17.20;39.60;;;;;;6027622;23;20161;-80
2020/12/25 12:53:44;;;;;;;0.40;0.40;;;17.20;39.60;;;;;;6025179;23;20164;-81
2020/12/25 12:56:28;;;;;;;0.50;0.50;;;17.30;39.50;;;;;;6027978;23;20177;-81
2020/12/25 12:59:12;;;;;;;0.40;0.40;;;17.30;39.50;;;;;;6024887;23;20182;-80
2020/12/25 13:02:07;;;;;;;0.30;0.30;;;17.20;39.50;;;;;;6027950;23;20204;-81
2020/12/25 13:05:11;;;;;;;0.40;0.40;;;17.30;39.40;;;;;;6049589;23;20158;-81
2020/12/25 13:08:07;;;;;;;0.47;0.40;;;17.20;39.60;;;;;;6025469;23;20177;-81
2020/12/25 13:11:04;;;;;;;0.63;0.40;;;17.30;39.30;;;;;;6025396;23;20217;-81
2020/12/25 13:14:11;;;;;;;0.60;0.55;;;17.20;39.50;;;;;;6004475;23;20161;-82
2020/12/25 13:17:05;;;;;;;0.45;0.45;;;17.30;39.40;;;;;;6050525;23;20169;-81
2020/12/25 13:19:45;;;;;;;0.50;0.50;;;17.30;39.30;;;;;;6122866;23;20179;-81
2020/12/25 13:22:20;;;;;;;0.57;0.40;;;17.30;39.40;;;;;;6169205;23;20195;-81
2020/12/25 13:24:56;;;;;;;0.30;0.30;;;17.20;39.50;;;;;;6104527;23;20151;-80
2020/12/25 13:27:41;;;;;;;0.50;0.45;;;17.20;39.40;;;;;;6118604;23;20198;-81
2020/12/25 13:33:15;;;;;;;0.57;0.50;;;17.20;39.40;;;;;;6059588;23;20161;-81
2020/12/25 13:36:07;;;;;;;0.50;0.50;;;17.20;39.50;;;;;;6078995;23;20224;-81
2020/12/25 13:38:42;;;;;;;0.50;0.40;;;17.30;39.40;;;;;;5969976;24;20190;-81
2020/12/25 13:41:44;;;;;;;0.40;0.40;;;17.30;39.40;;;;;;5971049;24;20151;-81
2020/12/25 13:44:48;;;;;;;0.38;0.38;;;17.20;39.60;;;;;;5993560;24;20151;-81
2020/12/25 13:47:53;;;;;;;0.57;0.40;;;17.20;39.50;;;;;;5993784;24;20143;-81
2020/12/25 13:50:51;;;;;;;0.40;0.40;;;17.20;39.50;;;;;;5980659;24;20155;-81
2020/12/25 13:53:48;;;;;;;0.40;0.40;;;17.30;39.50;;;;;;5966575;24;20178;-80
